sensor_id;sensor_type;location;lat;lon;timestamp;P1;durP1;ratioP1;P2;durP2;ratioP2
17917;SDS011;9084;50.956;3.106;2023-03-01T00:00:00;6.70;;;6.00;;
17917;SDS011;9084;50.956;3.106;2023-03-01T00:02:26;6.23;;;5.30;;
17917;SDS011;9084;50.956;3.106;2023-03-01T00:04:54;5.60;;;5.10;;
17917;SDS011;9084;50.956;3.106;2023-03-01T00:07:19;6.63;;;5.70;;
17917;SDS011;9084;50.956;3.106;2023-03-01T00:09:45;5.67;;;5.17;;
17917;SDS011;9084;50.956;3.106;2023-03-01T00:12:11;5.30;;;4.80;;
17917;SDS011;9084;50.956;3.106;2023-03-01T00:14:37;5.20;;;4.80;;
17917;SDS011;9084;50.956;3.106;2023-03-01T00:17:02;5.63;;;5.13;;
17917;SDS011;9084;50.956;3.106;2023-03-01T00:19:28;5.83;;;5.23;;
17917;SDS011;9084;50.956;3.106;2023-03-01T00:21:59;7.80;;;5.57;;
17917;SDS011;9084;50.956;3.106;2023-03-01T00:24:27;6.30;;;5.67;;
17917;SDS011;9084;50.956;3.106;2023-03-01T00:26:53;6.00;;;5.40;;
17917;SDS011;9084;50.956;3.106;2023-03-01T00:29:23;5.50;;;4.90;;
17917;SDS011;9084;50.956;3.106;2023-03-01T00:31:49;6.53;;;5.90;;
17917;SDS011;9084;50.956;3.106;2023-03-01T00:34:15;7.63;;;5.40;;
17917;SDS011;9084;50.956;3.106;2023-03-01T00:36:41;6.33;;;5.70;;
17917;SDS011;9084;50.956;3.106;2023-03-01T00:39:09;5.40;;;4.90;;
17917;SDS011;9084;50.956;3.106;2023-03-01T00:41:37;6.40;;;5.20;;
17917;SDS011;9084;50.956;3.106;2023-03-01T00:44:02;6.23;;;5.23;;
17917;SDS011;9084;50.956;3.106;2023-03-01T00:46:28;5.87;;;5.03;;
17917;SDS011;9084;50.956;3.106;2023-03-01T00:48:55;5.70;;;4.87;;
17917;SDS011;9084;50.956;3.106;2023-03-01T00:51:22;5.90;;;5.13;;
17917;SDS011;9084;50.956;3.106;2023-03-01T00:53:50;6.00;;;5.40;;
17917;SDS011;9084;50.956;3.106;2023-03-01T00:56:18;6.30;;;5.70;;
17917;SDS011;9084;50.956;3.106;2023-03-01T00:58:46;6.73;;;5.33;;
17917;SDS011;9084;50.956;3.106;2023-03-01T01:01:13;5.50;;;5.00;;
17917;SDS011;9084;50.956;3.106;2023-03-01T01:03:46;5.70;;;5.20;;
17917;SDS011;9084;50.956;3.106;2023-03-01T01:06:15;6.20;;;5.30;;
17917;SDS011;9084;50.956;3.106;2023-03-01T01:08:42;5.73;;;5.23;;
17917;SDS011;9084;50.956;3.106;2023-03-01T01:11:09;6.50;;;5.90;;
17917;SDS011;9084;50.956;3.106;2023-03-01T01:13:38;5.73;;;5.20;;
17917;SDS011;9084;50.956;3.106;2023-03-01T01:16:04;5.90;;;5.30;;
17917;SDS011;9084;50.956;3.106;2023-03-01T01:18:33;6.47;;;5.67;;
17917;SDS011;9084;50.956;3.106;2023-03-01T01:21:04;7.93;;;7.13;;
17917;SDS011;9084;50.956;3.106;2023-03-01T01:23:32;6.63;;;5.97;;
17917;SDS011;9084;50.956;3.106;2023-03-01T01:26:02;6.23;;;5.63;;
17917;SDS011;9084;50.956;3.106;2023-03-01T01:28:32;7.37;;;6.20;;
17917;SDS011;9084;50.956;3.106;2023-03-01T01:30:58;6.53;;;5.60;;
17917;SDS011;9084;50.956;3.106;2023-03-01T01:33:24;6.23;;;5.63;;
17917;SDS011;9084;50.956;3.106;2023-03-01T01:35:50;6.43;;;5.73;;
17917;SDS011;9084;50.956;3.106;2023-03-01T01:38:15;7.07;;;5.67;;
17917;SDS011;9084;50.956;3.106;2023-03-01T01:40:45;6.73;;;6.00;;
17917;SDS011;9084;50.956;3.106;2023-03-01T01:43:17;7.10;;;6.50;;
17917;SDS011;9084;50.956;3.106;2023-03-01T01:45:55;7.20;;;6.50;;
17917;SDS011;9084;50.956;3.106;2023-03-01T01:48:29;8.63;;;7.00;;
17917;SDS011;9084;50.956;3.106;2023-03-01T01:51:05;8.30;;;7.07;;
17917;SDS011;9084;50.956;3.106;2023-03-01T01:53:38;8.57;;;7.77;;
17917;SDS011;9084;50.956;3.106;2023-03-01T01:56:07;8.23;;;7.53;;
17917;SDS011;9084;50.956;3.106;2023-03-01T01:58:36;7.90;;;7.07;;
17917;SDS011;9084;50.956;3.106;2023-03-01T02:01:03;7.40;;;6.80;;
17917;SDS011;9084;50.956;3.106;2023-03-01T02:03:31;8.20;;;7.50;;
17917;SDS011;9084;50.956;3.106;2023-03-01T02:08:46;8.43;;;7.63;;
17917;SDS011;9084;50.956;3.106;2023-03-01T02:11:17;8.57;;;7.87;;
17917;SDS011;9084;50.956;3.106;2023-03-01T02:13:44;8.70;;;7.90;;
17917;SDS011;9084;50.956;3.106;2023-03-01T02:16:13;8.27;;;7.47;;
17917;SDS011;9084;50.956;3.106;2023-03-01T02:18:41;8.07;;;7.37;;
17917;SDS011;9084;50.956;3.106;2023-03-01T02:21:11;8.87;;;7.97;;
17917;SDS011;9084;50.956;3.106;2023-03-01T02:23:59;8.50;;;7.73;;
17917;SDS011;9084;50.956;3.106;2023-03-01T02:26:53;9.63;;;8.73;;
17917;SDS011;9084;50.956;3.106;2023-03-01T02:29:21;8.93;;;7.93;;
17917;SDS011;9084;50.956;3.106;2023-03-01T02:31:48;9.47;;;8.67;;
17917;SDS011;9084;50.956;3.106;2023-03-01T02:34:17;9.77;;;8.97;;
17917;SDS011;9084;50.956;3.106;2023-03-01T02:36:54;10.33;;;9.43;;
17917;SDS011;9084;50.956;3.106;2023-03-01T02:39:53;9.63;;;8.83;;
17917;SDS011;9084;50.956;3.106;2023-03-01T02:42:31;9.53;;;8.73;;
17917;SDS011;9084;50.956;3.106;2023-03-01T02:45:01;10.23;;;9.33;;
17917;SDS011;9084;50.956;3.106;2023-03-01T02:47:27;11.00;;;10.00;;
17917;SDS011;9084;50.956;3.106;2023-03-01T02:49:54;10.03;;;9.17;;
17917;SDS011;9084;50.956;3.106;2023-03-01T02:55:00;10.40;;;9.40;;
17917;SDS011;9084;50.956;3.106;2023-03-01T02:57:31;10.20;;;9.20;;
17917;SDS011;9084;50.956;3.106;2023-03-01T03:00:07;10.67;;;9.77;;
17917;SDS011;9084;50.956;3.106;2023-03-01T03:02:36;10.53;;;9.53;;
17917;SDS011;9084;50.956;3.106;2023-03-01T03:05:11;10.67;;;9.77;;
17917;SDS011;9084;50.956;3.106;2023-03-01T03:07:45;10.60;;;9.70;;
17917;SDS011;9084;50.956;3.106;2023-03-01T03:10:22;10.83;;;9.93;;
17917;SDS011;9084;50.956;3.106;2023-03-01T03:12:54;10.17;;;9.27;;
17917;SDS011;9084;50.956;3.106;2023-03-01T03:15:22;11.50;;;10.47;;
17917;SDS011;9084;50.956;3.106;2023-03-01T03:17:49;10.53;;;9.63;;
17917;SDS011;9084;50.956;3.106;2023-03-01T03:20:19;10.73;;;9.73;;
17917;SDS011;9084;50.956;3.106;2023-03-01T03:22:47;10.63;;;9.63;;
17917;SDS011;9084;50.956;3.106;2023-03-01T03:25:17;10.67;;;9.67;;
17917;SDS011;9084;50.956;3.106;2023-03-01T03:27:46;11.90;;;10.43;;
17917;SDS011;9084;50.956;3.106;2023-03-01T03:30:14;10.77;;;9.77;;
17917;SDS011;9084;50.956;3.106;2023-03-01T03:32:43;10.00;;;9.10;;
17917;SDS011;9084;50.956;3.106;2023-03-01T03:35:17;10.17;;;9.27;;
17917;SDS011;9084;50.956;3.106;2023-03-01T03:37:56;10.77;;;9.87;;
17917;SDS011;9084;50.956;3.106;2023-03-01T03:40:37;10.57;;;9.67;;
17917;SDS011;9084;50.956;3.106;2023-03-01T03:43:06;11.07;;;10.10;;
17917;SDS011;9084;50.956;3.106;2023-03-01T03:45:37;10.30;;;9.40;;
17917;SDS011;9084;50.956;3.106;2023-03-01T03:48:05;11.67;;;10.57;;
17917;SDS011;9084;50.956;3.106;2023-03-01T03:50:34;11.37;;;10.27;;
17917;SDS011;9084;50.956;3.106;2023-03-01T03:53:00;10.87;;;9.77;;
17917;SDS011;9084;50.956;3.106;2023-03-01T03:55:27;10.80;;;9.90;;
17917;SDS011;9084;50.956;3.106;2023-03-01T03:57:56;11.17;;;10.17;;
17917;SDS011;9084;50.956;3.106;2023-03-01T04:00:25;11.27;;;10.17;;
17917;SDS011;9084;50.956;3.106;2023-03-01T04:02:51;10.80;;;9.80;;
17917;SDS011;9084;50.956;3.106;2023-03-01T04:05:21;10.87;;;9.80;;
17917;SDS011;9084;50.956;3.106;2023-03-01T04:07:47;11.07;;;10.13;;
17917;SDS011;9084;50.956;3.106;2023-03-01T04:10:15;11.53;;;10.43;;
17917;SDS011;9084;50.956;3.106;2023-03-01T04:12:42;11.07;;;10.17;;
17917;SDS011;9084;50.956;3.106;2023-03-01T04:15:09;11.80;;;10.70;;
17917;SDS011;9084;50.956;3.106;2023-03-01T04:17:39;11.27;;;10.27;;
17917;SDS011;9084;50.956;3.106;2023-03-01T04:20:07;11.23;;;10.13;;
17917;SDS011;9084;50.956;3.106;2023-03-01T04:22:34;10.73;;;9.83;;
17917;SDS011;9084;50.956;3.106;2023-03-01T04:25:00;11.20;;;10.17;;
17917;SDS011;9084;50.956;3.106;2023-03-01T04:27:32;11.13;;;10.13;;
17917;SDS011;9084;50.956;3.106;2023-03-01T04:29:58;10.77;;;9.77;;
17917;SDS011;9084;50.956;3.106;2023-03-01T04:32:24;10.63;;;9.73;;
17917;SDS011;9084;50.956;3.106;2023-03-01T04:34:52;11.13;;;10.03;;
17917;SDS011;9084;50.956;3.106;2023-03-01T04:37:22;11.77;;;10.67;;
17917;SDS011;9084;50.956;3.106;2023-03-01T04:39:51;11.33;;;10.33;;
17917;SDS011;9084;50.956;3.106;2023-03-01T04:42:17;11.17;;;10.10;;
17917;SDS011;9084;50.956;3.106;2023-03-01T04:44:47;12.07;;;10.63;;
17917;SDS011;9084;50.956;3.106;2023-03-01T04:47:16;12.27;;;11.07;;
17917;SDS011;9084;50.956;3.106;2023-03-01T04:49:42;11.60;;;10.60;;
17917;SDS011;9084;50.956;3.106;2023-03-01T04:52:09;12.40;;;11.10;;
17917;SDS011;9084;50.956;3.106;2023-03-01T04:54:35;12.10;;;10.87;;
17917;SDS011;9084;50.956;3.106;2023-03-01T04:57:02;16.23;;;14.70;;
17917;SDS011;9084;50.956;3.106;2023-03-01T04:59:28;11.60;;;10.53;;
17917;SDS011;9084;50.956;3.106;2023-03-01T05:01:55;12.27;;;11.17;;
17917;SDS011;9084;50.956;3.106;2023-03-01T05:04:22;11.40;;;10.40;;
17917;SDS011;9084;50.956;3.106;2023-03-01T05:06:50;12.13;;;11.03;;
17917;SDS011;9084;50.956;3.106;2023-03-01T05:09:19;10.90;;;9.90;;
17917;SDS011;9084;50.956;3.106;2023-03-01T05:11:44;12.33;;;11.03;;
17917;SDS011;9084;50.956;3.106;2023-03-01T05:14:11;12.40;;;11.20;;
17917;SDS011;9084;50.956;3.106;2023-03-01T05:16:37;15.90;;;14.33;;
17917;SDS011;9084;50.956;3.106;2023-03-01T05:19:03;12.43;;;11.30;;
17917;SDS011;9084;50.956;3.106;2023-03-01T05:21:40;11.67;;;10.57;;
17917;SDS011;9084;50.956;3.106;2023-03-01T05:24:24;12.40;;;11.20;;
17917;SDS011;9084;50.956;3.106;2023-03-01T05:26:51;14.40;;;13.07;;
17917;SDS011;9084;50.956;3.106;2023-03-01T05:29:20;12.87;;;11.70;;
17917;SDS011;9084;50.956;3.106;2023-03-01T05:31:52;12.90;;;11.80;;
17917;SDS011;9084;50.956;3.106;2023-03-01T05:34:23;12.20;;;10.90;;
17917;SDS011;9084;50.956;3.106;2023-03-01T05:36:50;43.13;;;36.87;;
17917;SDS011;9084;50.956;3.106;2023-03-01T05:39:18;13.13;;;11.80;;
17917;SDS011;9084;50.956;3.106;2023-03-01T05:41:47;20.20;;;18.13;;
17917;SDS011;9084;50.956;3.106;2023-03-01T05:44:16;12.27;;;10.53;;
17917;SDS011;9084;50.956;3.106;2023-03-01T05:46:42;12.03;;;10.87;;
17917;SDS011;9084;50.956;3.106;2023-03-01T05:49:08;11.47;;;10.37;;
17917;SDS011;9084;50.956;3.106;2023-03-01T05:51:35;10.27;;;9.20;;
17917;SDS011;9084;50.956;3.106;2023-03-01T05:54:01;11.80;;;10.70;;
17917;SDS011;9084;50.956;3.106;2023-03-01T05:56:27;10.17;;;9.17;;
17917;SDS011;9084;50.956;3.106;2023-03-01T05:58:54;11.60;;;10.50;;
17917;SDS011;9084;50.956;3.106;2023-03-01T06:01:19;10.53;;;9.53;;
17917;SDS011;9084;50.956;3.106;2023-03-01T06:03:45;11.07;;;9.97;;
17917;SDS011;9084;50.956;3.106;2023-03-01T06:06:13;11.57;;;10.37;;
17917;SDS011;9084;50.956;3.106;2023-03-01T06:08:44;12.40;;;11.20;;
17917;SDS011;9084;50.956;3.106;2023-03-01T06:11:09;11.23;;;10.10;;
17917;SDS011;9084;50.956;3.106;2023-03-01T06:13:37;10.67;;;9.60;;
17917;SDS011;9084;50.956;3.106;2023-03-01T06:16:05;11.93;;;10.63;;
17917;SDS011;9084;50.956;3.106;2023-03-01T06:18:34;11.60;;;10.40;;
17917;SDS011;9084;50.956;3.106;2023-03-01T06:21:00;11.03;;;9.93;;
17917;SDS011;9084;50.956;3.106;2023-03-01T06:23:25;11.47;;;10.20;;
17917;SDS011;9084;50.956;3.106;2023-03-01T06:25:53;11.57;;;10.37;;
17917;SDS011;9084;50.956;3.106;2023-03-01T06:28:19;11.67;;;9.67;;
17917;SDS011;9084;50.956;3.106;2023-03-01T06:30:45;10.67;;;9.57;;
17917;SDS011;9084;50.956;3.106;2023-03-01T06:33:11;10.50;;;9.50;;
17917;SDS011;9084;50.956;3.106;2023-03-01T06:35:37;11.50;;;10.30;;
17917;SDS011;9084;50.956;3.106;2023-03-01T06:38:03;11.87;;;9.37;;
17917;SDS011;9084;50.956;3.106;2023-03-01T06:40:30;11.17;;;10.10;;
17917;SDS011;9084;50.956;3.106;2023-03-01T06:42:56;15.37;;;12.10;;
17917;SDS011;9084;50.956;3.106;2023-03-01T06:45:22;15.83;;;13.57;;
17917;SDS011;9084;50.956;3.106;2023-03-01T06:47:48;18.97;;;14.70;;
17917;SDS011;9084;50.956;3.106;2023-03-01T06:50:16;15.70;;;13.53;;
17917;SDS011;9084;50.956;3.106;2023-03-01T06:52:43;13.43;;;11.30;;
17917;SDS011;9084;50.956;3.106;2023-03-01T06:55:10;12.23;;;10.93;;
17917;SDS011;9084;50.956;3.106;2023-03-01T06:57:37;10.90;;;9.90;;
17917;SDS011;9084;50.956;3.106;2023-03-01T07:00:03;10.27;;;9.17;;
17917;SDS011;9084;50.956;3.106;2023-03-01T07:02:29;10.80;;;9.70;;
17917;SDS011;9084;50.956;3.106;2023-03-01T07:04:55;11.40;;;9.97;;
17917;SDS011;9084;50.956;3.106;2023-03-01T07:07:23;11.37;;;10.23;;
17917;SDS011;9084;50.956;3.106;2023-03-01T07:09:51;10.67;;;9.57;;
17917;SDS011;9084;50.956;3.106;2023-03-01T07:12:20;10.93;;;9.83;;
17917;SDS011;9084;50.956;3.106;2023-03-01T07:14:46;10.50;;;9.50;;
17917;SDS011;9084;50.956;3.106;2023-03-01T07:17:14;10.93;;;9.67;;
17917;SDS011;9084;50.956;3.106;2023-03-01T07:19:39;9.97;;;9.07;;
17917;SDS011;9084;50.956;3.106;2023-03-01T07:22:05;10.80;;;8.63;;
17917;SDS011;9084;50.956;3.106;2023-03-01T07:24:33;10.73;;;9.63;;
17917;SDS011;9084;50.956;3.106;2023-03-01T07:26:58;9.43;;;8.50;;
17917;SDS011;9084;50.956;3.106;2023-03-01T07:29:26;9.90;;;8.87;;
17917;SDS011;9084;50.956;3.106;2023-03-01T07:31:54;9.83;;;8.83;;
17917;SDS011;9084;50.956;3.106;2023-03-01T07:34:20;10.70;;;9.60;;
17917;SDS011;9084;50.956;3.106;2023-03-01T07:36:48;14.40;;;9.57;;
17917;SDS011;9084;50.956;3.106;2023-03-01T07:39:14;9.93;;;8.93;;
17917;SDS011;9084;50.956;3.106;2023-03-01T07:41:40;10.43;;;9.20;;
17917;SDS011;9084;50.956;3.106;2023-03-01T07:44:08;10.27;;;9.17;;
17917;SDS011;9084;50.956;3.106;2023-03-01T07:46:34;11.03;;;8.60;;
17917;SDS011;9084;50.956;3.106;2023-03-01T07:48:59;11.90;;;10.67;;
17917;SDS011;9084;50.956;3.106;2023-03-01T07:51:25;18.70;;;13.67;;
17917;SDS011;9084;50.956;3.106;2023-03-01T07:53:51;31.60;;;24.00;;
17917;SDS011;9084;50.956;3.106;2023-03-01T07:56:17;15.87;;;9.47;;
17917;SDS011;9084;50.956;3.106;2023-03-01T07:58:43;11.37;;;9.50;;
17917;SDS011;9084;50.956;3.106;2023-03-01T08:01:12;10.13;;;9.07;;
17917;SDS011;9084;50.956;3.106;2023-03-01T08:03:39;12.10;;;10.53;;
17917;SDS011;9084;50.956;3.106;2023-03-01T08:06:06;11.63;;;8.63;;
17917;SDS011;9084;50.956;3.106;2023-03-01T08:08:33;9.10;;;8.30;;
17917;SDS011;9084;50.956;3.106;2023-03-01T08:11:00;9.93;;;8.60;;
17917;SDS011;9084;50.956;3.106;2023-03-01T08:13:27;9.93;;;9.00;;
17917;SDS011;9084;50.956;3.106;2023-03-01T08:15:53;11.53;;;10.43;;
17917;SDS011;9084;50.956;3.106;2023-03-01T08:18:19;9.37;;;7.77;;
17917;SDS011;9084;50.956;3.106;2023-03-01T08:20:46;9.17;;;8.03;;
17917;SDS011;9084;50.956;3.106;2023-03-01T08:23:13;8.77;;;7.80;;
17917;SDS011;9084;50.956;3.106;2023-03-01T08:25:38;9.47;;;8.57;;
17917;SDS011;9084;50.956;3.106;2023-03-01T08:28:04;10.20;;;7.53;;
17917;SDS011;9084;50.956;3.106;2023-03-01T08:30:30;10.13;;;8.00;;
17917;SDS011;9084;50.956;3.106;2023-03-01T08:32:56;30.57;;;24.60;;
17917;SDS011;9084;50.956;3.106;2023-03-01T08:35:22;14.60;;;11.80;;
17917;SDS011;9084;50.956;3.106;2023-03-01T08:37:48;12.43;;;10.60;;
17917;SDS011;9084;50.956;3.106;2023-03-01T08:40:16;8.93;;;7.33;;
17917;SDS011;9084;50.956;3.106;2023-03-01T08:42:42;10.97;;;9.70;;
17917;SDS011;9084;50.956;3.106;2023-03-01T08:45:10;11.97;;;10.27;;
17917;SDS011;9084;50.956;3.106;2023-03-01T08:47:43;10.60;;;9.57;;
17917;SDS011;9084;50.956;3.106;2023-03-01T08:50:11;9.43;;;8.37;;
17917;SDS011;9084;50.956;3.106;2023-03-01T08:52:39;12.73;;;7.70;;
17917;SDS011;9084;50.956;3.106;2023-03-01T08:55:05;8.07;;;6.60;;
17917;SDS011;9084;50.956;3.106;2023-03-01T08:57:31;8.67;;;7.50;;
17917;SDS011;9084;50.956;3.106;2023-03-01T08:59:59;7.97;;;6.77;;
17917;SDS011;9084;50.956;3.106;2023-03-01T09:02:25;10.10;;;7.23;;
17917;SDS011;9084;50.956;3.106;2023-03-01T09:04:50;6.67;;;5.97;;
17917;SDS011;9084;50.956;3.106;2023-03-01T09:07:18;8.67;;;6.30;;
17917;SDS011;9084;50.956;3.106;2023-03-01T09:09:44;7.50;;;5.47;;
17917;SDS011;9084;50.956;3.106;2023-03-01T09:12:12;7.77;;;6.03;;
17917;SDS011;9084;50.956;3.106;2023-03-01T09:14:40;6.33;;;5.57;;
17917;SDS011;9084;50.956;3.106;2023-03-01T09:17:06;5.27;;;4.77;;
17917;SDS011;9084;50.956;3.106;2023-03-01T09:19:32;6.63;;;4.83;;
17917;SDS011;9084;50.956;3.106;2023-03-01T09:21:57;6.40;;;5.10;;
17917;SDS011;9084;50.956;3.106;2023-03-01T09:24:23;7.17;;;5.43;;
17917;SDS011;9084;50.956;3.106;2023-03-01T09:26:51;5.97;;;5.37;;
17917;SDS011;9084;50.956;3.106;2023-03-01T09:29:18;6.00;;;4.83;;
17917;SDS011;9084;50.956;3.106;2023-03-01T09:31:44;5.70;;;5.20;;
17917;SDS011;9084;50.956;3.106;2023-03-01T09:34:10;5.87;;;4.80;;
17917;SDS011;9084;50.956;3.106;2023-03-01T09:36:38;8.63;;;5.20;;
17917;SDS011;9084;50.956;3.106;2023-03-01T09:39:04;5.27;;;4.40;;
17917;SDS011;9084;50.956;3.106;2023-03-01T09:46:52;4.87;;;4.00;;
17917;SDS011;9084;50.956;3.106;2023-03-01T09:49:19;4.80;;;4.00;;
17917;SDS011;9084;50.956;3.106;2023-03-01T09:51:53;6.60;;;3.73;;
17917;SDS011;9084;50.956;3.106;2023-03-01T09:54:34;4.37;;;3.27;;
17917;SDS011;9084;50.956;3.106;2023-03-01T10:02:05;3.10;;;2.70;;
17917;SDS011;9084;50.956;3.106;2023-03-01T10:05:04;5.40;;;3.63;;
17917;SDS011;9084;50.956;3.106;2023-03-01T10:07:53;8.47;;;7.67;;
17917;SDS011;9084;50.956;3.106;2023-03-01T10:10:36;4.37;;;3.20;;
17917;SDS011;9084;50.956;3.106;2023-03-01T10:13:09;4.57;;;3.50;;
17917;SDS011;9084;50.956;3.106;2023-03-01T10:18:59;5.60;;;4.97;;
17917;SDS011;9084;50.956;3.106;2023-03-01T10:21:27;4.73;;;3.97;;
17917;SDS011;9084;50.956;3.106;2023-03-01T10:23:56;5.70;;;4.77;;
17917;SDS011;9084;50.956;3.106;2023-03-01T10:26:40;7.20;;;6.43;;
17917;SDS011;9084;50.956;3.106;2023-03-01T10:29:13;14.30;;;12.80;;
17917;SDS011;9084;50.956;3.106;2023-03-01T10:31:44;5.83;;;4.73;;
17917;SDS011;9084;50.956;3.106;2023-03-01T10:36:49;4.23;;;3.17;;
17917;SDS011;9084;50.956;3.106;2023-03-01T10:39:21;5.17;;;3.77;;
17917;SDS011;9084;50.956;3.106;2023-03-01T10:44:41;3.60;;;3.30;;
17917;SDS011;9084;50.956;3.106;2023-03-01T10:50:04;7.93;;;3.73;;
17917;SDS011;9084;50.956;3.106;2023-03-01T10:52:42;4.20;;;3.63;;
17917;SDS011;9084;50.956;3.106;2023-03-01T10:55:39;9.87;;;5.93;;
17917;SDS011;9084;50.956;3.106;2023-03-01T10:58:06;5.03;;;4.43;;
17917;SDS011;9084;50.956;3.106;2023-03-01T11:00:45;6.20;;;3.80;;
17917;SDS011;9084;50.956;3.106;2023-03-01T11:03:12;3.83;;;3.53;;
17917;SDS011;9084;50.956;3.106;2023-03-01T11:05:56;5.13;;;4.00;;
17917;SDS011;9084;50.956;3.106;2023-03-01T11:08:38;3.57;;;3.00;;
17917;SDS011;9084;50.956;3.106;2023-03-01T11:13:50;5.63;;;3.87;;
17917;SDS011;9084;50.956;3.106;2023-03-01T11:16:24;4.53;;;3.67;;
17917;SDS011;9084;50.956;3.106;2023-03-01T11:18:57;4.47;;;3.47;;
17917;SDS011;9084;50.956;3.106;2023-03-01T11:21:56;3.50;;;3.17;;
17917;SDS011;9084;50.956;3.106;2023-03-01T11:24:39;4.90;;;3.23;;
17917;SDS011;9084;50.956;3.106;2023-03-01T11:27:14;3.00;;;2.60;;
17917;SDS011;9084;50.956;3.106;2023-03-01T11:29:48;5.60;;;3.20;;
17917;SDS011;9084;50.956;3.106;2023-03-01T11:32:31;3.13;;;2.80;;
17917;SDS011;9084;50.956;3.106;2023-03-01T11:35:16;4.20;;;2.83;;
17917;SDS011;9084;50.956;3.106;2023-03-01T11:40:48;5.33;;;3.33;;
17917;SDS011;9084;50.956;3.106;2023-03-01T11:46:02;4.90;;;2.80;;
17917;SDS011;9084;50.956;3.106;2023-03-01T11:57:11;10.60;;;9.50;;
17917;SDS011;9084;50.956;3.106;2023-03-01T12:05:45;5.00;;;3.50;;
17917;SDS011;9084;50.956;3.106;2023-03-01T12:08:24;3.87;;;3.30;;
17917;SDS011;9084;50.956;3.106;2023-03-01T12:11:21;2.93;;;2.70;;
17917;SDS011;9084;50.956;3.106;2023-03-01T12:31:46;5.83;;;5.20;;
17917;SDS011;9084;50.956;3.106;2023-03-01T12:40:01;4.90;;;3.40;;
17917;SDS011;9084;50.956;3.106;2023-03-01T12:50:42;4.07;;;3.60;;
17917;SDS011;9084;50.956;3.106;2023-03-01T12:55:51;3.70;;;3.27;;
17917;SDS011;9084;50.956;3.106;2023-03-01T13:01:11;3.43;;;3.10;;
17917;SDS011;9084;50.956;3.106;2023-03-01T13:04:06;4.03;;;3.37;;
17917;SDS011;9084;50.956;3.106;2023-03-01T13:06:45;5.90;;;3.30;;
17917;SDS011;9084;50.956;3.106;2023-03-01T13:09:28;4.73;;;3.47;;
17917;SDS011;9084;50.956;3.106;2023-03-01T13:15:36;3.97;;;3.23;;
17917;SDS011;9084;50.956;3.106;2023-03-01T13:33:53;4.03;;;3.70;;
17917;SDS011;9084;50.956;3.106;2023-03-01T13:38:55;8.17;;;7.47;;
17917;SDS011;9084;50.956;3.106;2023-03-01T13:44:17;5.13;;;3.83;;
17917;SDS011;9084;50.956;3.106;2023-03-01T13:46:46;4.37;;;3.97;;
17917;SDS011;9084;50.956;3.106;2023-03-01T13:49:16;3.93;;;3.57;;
17917;SDS011;9084;50.956;3.106;2023-03-01T13:51:47;5.60;;;5.13;;
17917;SDS011;9084;50.956;3.106;2023-03-01T13:54:18;4.07;;;3.50;;
17917;SDS011;9084;50.956;3.106;2023-03-01T13:56:54;4.27;;;3.47;;
17917;SDS011;9084;50.956;3.106;2023-03-01T13:59:23;4.10;;;3.67;;
17917;SDS011;9084;50.956;3.106;2023-03-01T14:02:00;3.60;;;3.17;;
17917;SDS011;9084;50.956;3.106;2023-03-01T14:09:45;4.07;;;3.60;;
17917;SDS011;9084;50.956;3.106;2023-03-01T14:19:59;3.30;;;3.00;;
17917;SDS011;9084;50.956;3.106;2023-03-01T14:22:34;6.13;;;3.47;;
17917;SDS011;9084;50.956;3.106;2023-03-01T14:25:02;4.33;;;3.50;;
17917;SDS011;9084;50.956;3.106;2023-03-01T14:27:41;4.13;;;3.70;;
17917;SDS011;9084;50.956;3.106;2023-03-01T14:30:15;4.87;;;3.90;;
17917;SDS011;9084;50.956;3.106;2023-03-01T14:35:25;3.80;;;3.40;;
17917;SDS011;9084;50.956;3.106;2023-03-01T14:37:52;7.20;;;3.60;;
17917;SDS011;9084;50.956;3.106;2023-03-01T14:40:32;5.13;;;3.70;;
17917;SDS011;9084;50.956;3.106;2023-03-01T14:43:00;4.87;;;3.47;;
17917;SDS011;9084;50.956;3.106;2023-03-01T14:45:36;4.50;;;3.83;;
17917;SDS011;9084;50.956;3.106;2023-03-01T14:48:02;4.47;;;4.07;;
17917;SDS011;9084;50.956;3.106;2023-03-01T14:50:31;7.13;;;3.90;;
17917;SDS011;9084;50.956;3.106;2023-03-01T14:53:05;4.10;;;3.70;;
17917;SDS011;9084;50.956;3.106;2023-03-01T14:55:37;3.83;;;3.50;;
17917;SDS011;9084;50.956;3.106;2023-03-01T14:58:12;4.43;;;3.90;;
17917;SDS011;9084;50.956;3.106;2023-03-01T15:00:57;5.00;;;4.43;;
17917;SDS011;9084;50.956;3.106;2023-03-01T15:03:36;4.30;;;3.90;;
17917;SDS011;9084;50.956;3.106;2023-03-01T15:06:03;5.57;;;4.60;;
17917;SDS011;9084;50.956;3.106;2023-03-01T15:08:33;4.47;;;3.93;;
17917;SDS011;9084;50.956;3.106;2023-03-01T15:11:16;5.57;;;3.73;;
17917;SDS011;9084;50.956;3.106;2023-03-01T15:13:50;4.70;;;4.23;;
17917;SDS011;9084;50.956;3.106;2023-03-01T15:18:50;4.73;;;3.43;;
17917;SDS011;9084;50.956;3.106;2023-03-01T15:21:32;3.77;;;3.00;;
17917;SDS011;9084;50.956;3.106;2023-03-01T15:26:45;4.93;;;3.87;;
17917;SDS011;9084;50.956;3.106;2023-03-01T15:29:19;3.80;;;3.47;;
17917;SDS011;9084;50.956;3.106;2023-03-01T15:34:23;4.33;;;3.33;;
17917;SDS011;9084;50.956;3.106;2023-03-01T15:36:51;4.73;;;3.27;;
17917;SDS011;9084;50.956;3.106;2023-03-01T15:47:57;6.03;;;5.43;;
17917;SDS011;9084;50.956;3.106;2023-03-01T15:50:29;6.03;;;5.50;;
17917;SDS011;9084;50.956;3.106;2023-03-01T15:53:00;4.17;;;3.87;;
17917;SDS011;9084;50.956;3.106;2023-03-01T15:55:31;4.40;;;3.77;;
17917;SDS011;9084;50.956;3.106;2023-03-01T15:58:14;4.27;;;3.57;;
17917;SDS011;9084;50.956;3.106;2023-03-01T16:00:41;4.30;;;3.00;;
17917;SDS011;9084;50.956;3.106;2023-03-01T16:03:13;3.70;;;3.10;;
17917;SDS011;9084;50.956;3.106;2023-03-01T16:05:41;4.80;;;3.50;;
17917;SDS011;9084;50.956;3.106;2023-03-01T16:08:07;4.97;;;3.73;;
17917;SDS011;9084;50.956;3.106;2023-03-01T16:10:36;3.93;;;3.30;;
17917;SDS011;9084;50.956;3.106;2023-03-01T16:13:02;4.73;;;3.23;;
17917;SDS011;9084;50.956;3.106;2023-03-01T16:15:31;4.07;;;3.27;;
17917;SDS011;9084;50.956;3.106;2023-03-01T16:17:59;4.10;;;3.30;;
17917;SDS011;9084;50.956;3.106;2023-03-01T16:20:25;4.63;;;3.57;;
17917;SDS011;9084;50.956;3.106;2023-03-01T16:22:54;5.27;;;3.90;;
17917;SDS011;9084;50.956;3.106;2023-03-01T16:25:23;5.00;;;3.77;;
17917;SDS011;9084;50.956;3.106;2023-03-01T16:27:51;8.57;;;4.10;;
17917;SDS011;9084;50.956;3.106;2023-03-01T16:30:21;4.43;;;4.03;;
17917;SDS011;9084;50.956;3.106;2023-03-01T16:32:48;5.13;;;4.00;;
17917;SDS011;9084;50.956;3.106;2023-03-01T16:35:18;4.77;;;3.90;;
17917;SDS011;9084;50.956;3.106;2023-03-01T16:37:45;4.07;;;3.77;;
17917;SDS011;9084;50.956;3.106;2023-03-01T16:40:18;5.23;;;4.73;;
17917;SDS011;9084;50.956;3.106;2023-03-01T16:42:49;6.20;;;4.10;;
17917;SDS011;9084;50.956;3.106;2023-03-01T16:45:18;3.87;;;3.03;;
17917;SDS011;9084;50.956;3.106;2023-03-01T16:47:44;4.73;;;3.63;;
17917;SDS011;9084;50.956;3.106;2023-03-01T16:50:12;5.90;;;4.07;;
17917;SDS011;9084;50.956;3.106;2023-03-01T16:52:38;4.60;;;3.77;;
17917;SDS011;9084;50.956;3.106;2023-03-01T16:55:04;7.60;;;4.43;;
17917;SDS011;9084;50.956;3.106;2023-03-01T16:57:33;7.17;;;5.50;;
17917;SDS011;9084;50.956;3.106;2023-03-01T17:00:02;5.03;;;4.57;;
17917;SDS011;9084;50.956;3.106;2023-03-01T17:02:37;5.80;;;4.17;;
17917;SDS011;9084;50.956;3.106;2023-03-01T17:05:04;4.60;;;3.53;;
17917;SDS011;9084;50.956;3.106;2023-03-01T17:07:30;4.80;;;4.10;;
17917;SDS011;9084;50.956;3.106;2023-03-01T17:10:01;5.77;;;5.17;;
17917;SDS011;9084;50.956;3.106;2023-03-01T17:12:30;5.57;;;4.30;;
17917;SDS011;9084;50.956;3.106;2023-03-01T17:14:57;5.53;;;4.50;;
17917;SDS011;9084;50.956;3.106;2023-03-01T17:17:23;4.70;;;4.20;;
17917;SDS011;9084;50.956;3.106;2023-03-01T17:19:51;5.37;;;4.90;;
17917;SDS011;9084;50.956;3.106;2023-03-01T17:22:17;5.07;;;4.37;;
17917;SDS011;9084;50.956;3.106;2023-03-01T17:24:44;4.93;;;4.30;;
17917;SDS011;9084;50.956;3.106;2023-03-01T17:27:12;5.90;;;4.00;;
17917;SDS011;9084;50.956;3.106;2023-03-01T17:29:41;5.93;;;3.80;;
17917;SDS011;9084;50.956;3.106;2023-03-01T17:32:07;6.13;;;4.20;;